Time;durP1;ratioP1;P1;durP2;ratioP2;P2;SDS_P1;SDS_P2;PMS_P1;PMS_P2;Temp;Humidity;BMP_temperature;BMP_pressure;BME280_temperature;BME280_humidity;BME280_pressure;Samples;Min_cycle;Max_cycle;Signal;HPM_P1;HPM_P2
2022/03/02 00:00:04;;;;;;;10.9;5.9;;;;;;;-1.12;66.03613;944.908;;;;
2022/03/02 00:02:40;;;;;;;8.2;5.6;;;;;;;-1.16;65.59766;944.8954;;;;
2022/03/02 00:05:16;;;;;;;7.2;5.2;;;;;;;-1.13;65.14648;944.7614;;;;
2022/03/02 00:07:54;;;;;;;7.1;4.7;;;;;;;-1.08;64.94336;944.861;;;;
2022/03/02 00:10:23;;;;;;;8.3;5.6;;;;;;;-1.19;65.33789;944.8467;;;;
2022/03/02 00:12:58;;;;;;;7.5;5.5;;;;;;;-1.2;65.60254;944.8079;;;;
2022/03/02 00:15:24;;;;;;;8.8;5.6;;;;;;;-1.23;65.93066;944.8394;;;;
2022/03/02 00:18:22;;;;;;;9.9;5.7;;;;;;;-1.37;66.03125;944.8344;;;;
2022/03/02 00:21:01;;;;;;;7.8;5.5;;;;;;;-1.46;67.07031;944.7783;;;;
2022/03/02 00:23:39;;;;;;;8.2;6;;;;;;;-1.49;68.08691;944.8228;;;;
2022/03/02 00:26:17;;;;;;;9.4;6.8;;;;;;;-1.45;68.27344;944.7283;;;;
2022/03/02 00:28:46;;;;;;;11.2;7.3;;;;;;;-1.41;67.90039;944.5706;;;;
2022/03/02 00:31:13;;;;;;;10;6.9;;;;;;;-1.41;68.05566;944.6494;;;;
2022/03/02 00:33:44;;;;;;;8.7;5.8;;;;;;;-1.46;68.30371;944.6767;;;;
2022/03/02 00:36:24;;;;;;;7.7;5.6;;;;;;;-1.63;68.4541;944.7131;;;;
2022/03/02 00:38:53;;;;;;;7.1;5.4;;;;;;;-1.58;67.87402;944.7349;;;;
2022/03/02 00:41:21;;;;;;;8.3;5.4;;;;;;;-1.59;67.42871;944.6795;;;;
2022/03/02 00:43:57;;;;;;;7.5;5.7;;;;;;;-1.65;68.15137;944.6447;;;;
2022/03/02 00:46:29;;;;;;;8.7;5.5;;;;;;;-1.7;68.4873;944.661;;;;
2022/03/02 00:48:58;;;;;;;9.8;6.1;;;;;;;-1.68;68.63477;944.6342;;;;
2022/03/02 00:51:23;;;;;;;9;5.9;;;;;;;-1.7;68.70801;944.6554;;;;
2022/03/02 00:53:53;;;;;;;12;7.6;;;;;;;-1.64;68.03027;944.5575;;;;
2022/03/02 00:56:18;;;;;;;8.4;5.4;;;;;;;-1.54;67.58008;944.5438;;;;
2022/03/02 00:58:44;;;;;;;9.9;6.1;;;;;;;-1.5;67.29785;944.6029;;;;
2022/03/02 01:01:10;;;;;;;10.9;6.2;;;;;;;-1.53;67.53711;944.526;;;;
2022/03/02 01:03:39;;;;;;;8.2;5.6;;;;;;;-1.68;67.8584;944.5859;;;;
2022/03/02 01:06:05;;;;;;;6.7;4.9;;;;;;;-1.76;67.9209;944.6202;;;;
2022/03/02 01:08:32;;;;;;;10.5;6.6;;;;;;;-1.93;69.05762;944.5291;;;;
2022/03/02 01:10:59;;;;;;;9.7;6.2;;;;;;;-1.78;68.44141;944.5122;;;;
2022/03/02 01:13:28;;;;;;;10.4;6.4;;;;;;;-1.77;68.04297;944.4716;;;;
2022/03/02 01:15:54;;;;;;;10.5;6.5;;;;;;;-1.84;67.93066;944.3923;;;;
2022/03/02 01:18:19;;;;;;;8.5;5.5;;;;;;;-1.91;67.7998;944.4083;;;;
2022/03/02 01:20:55;;;;;;;9.3;5.6;;;;;;;-1.85;67.44238;944.2734;;;;
2022/03/02 01:23:24;;;;;;;7.4;4.6;;;;;;;-1.73;66.91895;944.2478;;;;
2022/03/02 01:25:53;;;;;;;6.9;4.5;;;;;;;-1.74;66.88184;944.2256;;;;
2022/03/02 01:28:24;;;;;;;9;4.9;;;;;;;-1.69;66.79004;944.2261;;;;
2022/03/02 01:30:56;;;;;;;8.6;5.2;;;;;;;-1.72;67.2627;944.2747;;;;
2022/03/02 01:33:25;;;;;;;8.6;4.8;;;;;;;-1.8;67.49414;944.2651;;;;
2022/03/02 01:36:03;;;;;;;7.4;4.4;;;;;;;-1.75;66.93555;944.1844;;;;
2022/03/02 01:38:35;;;;;;;6.3;4;;;;;;;-1.81;66.82715;944.0706;;;;
2022/03/02 01:41:09;;;;;;;6.8;3.8;;;;;;;-1.96;67.11426;944.1381;;;;
2022/03/02 01:43:33;;;;;;;7.2;3.9;;;;;;;-1.97;67.27832;944.197;;;;
2022/03/02 01:46:00;;;;;;;5.5;3.7;;;;;;;-1.86;66.50977;944.1234;;;;
2022/03/02 01:48:30;;;;;;;5.3;3.4;;;;;;;-1.94;66.66309;944.1285;;;;
2022/03/02 01:50:55;;;;;;;12.1;5.4;;;;;;;-1.97;67.04492;944.0988;;;;
2022/03/02 01:53:23;;;;;;;7.2;4.2;;;;;;;-1.91;66.87793;944.0062;;;;
2022/03/02 01:55:48;;;;;;;7.3;4.4;;;;;;;-1.86;66.49707;943.968;;;;
2022/03/02 01:58:18;;;;;;;7.9;4.6;;;;;;;-1.87;66.81738;944.0449;;;;
2022/03/02 02:00:43;;;;;;;6.8;4.5;;;;;;;-1.83;66.84668;943.9631;;;;
2022/03/02 02:03:12;;;;;;;5.7;3.5;;;;;;;-1.86;63.84668;944.0367;;;;
2022/03/02 02:05:37;;;;;;;7.1;4.4;;;;;;;-1.82;66.00488;943.9612;;;;
2022/03/02 02:08:07;;;;;;;8.2;4.8;;;;;;;-1.99;67.23047;944.0151;;;;
2022/03/02 02:10:31;;;;;;;8.6;4.9;;;;;;;-1.99;67.46387;943.9838;;;;
2022/03/02 02:12:59;;;;;;;9;4.8;;;;;;;-2.13;68.42676;944.0233;;;;
2022/03/02 02:15:24;;;;;;;10.7;5.5;;;;;;;-2.18;68.51953;943.9532;;;;
2022/03/02 02:17:49;;;;;;;13.9;7.6;;;;;;;-2.25;68.30762;943.9186;;;;
2022/03/02 02:20:14;;;;;;;9.8;5.4;;;;;;;-2.24;68.57715;943.9492;;;;
2022/03/02 02:22:39;;;;;;;12;5.7;;;;;;;-2.26;68.81738;943.9454;;;;
2022/03/02 02:25:12;;;;;;;11;5.1;;;;;;;-2.36;69.37695;943.8111;;;;
2022/03/02 02:27:44;;;;;;;10.1;5.4;;;;;;;-2.31;69.16309;943.8719;;;;
2022/03/02 02:30:17;;;;;;;11.8;5.1;;;;;;;-2.26;68.45215;943.8502;;;;
2022/03/02 02:32:42;;;;;;;9.6;5.7;;;;;;;-2.25;68.35254;943.8484;;;;
2022/03/02 02:35:18;;;;;;;8.7;4.8;;;;;;;-2.32;68.20703;943.8228;;;;
2022/03/02 02:37:43;;;;;;;8.7;4.5;;;;;;;-2.32;68.01953;943.7838;;;;
2022/03/02 02:42:35;;;;;;;8.3;4.8;;;;;;;-2.35;67.84863;943.8467;;;;
2022/03/02 02:44:59;;;;;;;8.4;4.2;;;;;;;-2.22;66.70605;943.8644;;;;
2022/03/02 02:47:24;;;;;;;5.6;3.5;;;;;;;-2.13;61.97656;943.7924;;;;
2022/03/02 02:49:52;;;;;;;6.8;3.8;;;;;;;-2.01;63.81348;943.7325;;;;
2022/03/02 02:52:17;;;;;;;5.6;3.7;;;;;;;-2.02;65.44141;943.6923;;;;
2022/03/02 02:54:42;;;;;;;6.6;4.3;;;;;;;-2.17;67.11328;943.6761;;;;
2022/03/02 02:57:09;;;;;;;15.7;6.7;;;;;;;-2.27;67.78418;943.5869;;;;
2022/03/02 02:59:34;;;;;;;12.5;5.8;;;;;;;-2.35;67.89453;943.478;;;;
2022/03/02 03:02:02;;;;;;;18.4;6.5;;;;;;;-2.33;68.00684;943.2769;;;;
2022/03/02 03:04:26;;;;;;;6.9;4;;;;;;;-2.3;67.04688;943.257;;;;
2022/03/02 03:06:53;;;;;;;6.1;3.6;;;;;;;-2.25;65.75977;943.1188;;;;
2022/03/02 03:09:18;;;;;;;4.8;3.3;;;;;;;-2.17;64.55273;943.1217;;;;
2022/03/02 03:11:46;;;;;;;6.4;3.3;;;;;;;-2.04;62.68848;943.1189;;;;
2022/03/02 03:14:11;;;;;;;5.1;2.9;;;;;;;-2.06;61.48926;943.1071;;;;
2022/03/02 03:16:39;;;;;;;5.4;2.8;;;;;;;-2.02;61.22754;943.1661;;;;
2022/03/02 03:19:07;;;;;;;5.2;2.9;;;;;;;-1.9;61.30176;943.142;;;;
2022/03/02 03:21:34;;;;;;;5.2;2.8;;;;;;;-2.02;62.80273;943.1523;;;;
2022/03/02 03:24:03;;;;;;;5.5;2.8;;;;;;;-2.28;64.68066;943.051;;;;
2022/03/02 03:26:28;;;;;;;6.3;3.3;;;;;;;-2.44;66.31641;943.0919;;;;
2022/03/02 03:29:00;;;;;;;7.9;3.6;;;;;;;-2.62;67.47461;943.1158;;;;
2022/03/02 03:31:25;;;;;;;10.4;4.9;;;;;;;-2.7;67.42676;943.1334;;;;
2022/03/02 03:33:51;;;;;;;14.6;5.3;;;;;;;-2.71;67.58008;943.111;;;;
2022/03/02 03:36:19;;;;;;;7.9;4.4;;;;;;;-2.66;67.5332;943.2048;;;;
2022/03/02 03:38:44;;;;;;;10;4.3;;;;;;;-2.58;67.21387;943.2294;;;;
2022/03/02 03:41:14;;;;;;;9.6;5;;;;;;;-2.65;67.33691;943.3002;;;;
2022/03/02 03:43:39;;;;;;;11.6;4.8;;;;;;;-2.72;67.52441;943.3304;;;;
2022/03/02 03:46:08;;;;;;;6.8;3.8;;;;;;;-2.84;67.80273;943.335;;;;
2022/03/02 03:48:32;;;;;;;7.2;3.8;;;;;;;-2.88;67.97461;943.3118;;;;
2022/03/02 03:51:02;;;;;;;8.1;3.6;;;;;;;-2.89;67.55078;943.3064;;;;
2022/03/02 03:53:30;;;;;;;7.4;3.5;;;;;;;-2.91;67.6582;943.3406;;;;
2022/03/02 03:55:55;;;;;;;8.1;3.5;;;;;;;-2.96;67.71777;943.2729;;;;
2022/03/02 03:58:22;;;;;;;6.5;3.7;;;;;;;-2.97;67.79395;943.2808;;;;
2022/03/02 04:02:31;;;;;;;15.2;4.8;;;;;;;-2.88;67.69727;943.2869;;;;
2022/03/02 04:04:59;;;;;;;14.3;4.7;;;;;;;-2.89;67.97168;943.2541;;;;
2022/03/02 04:07:24;;;;;;;11.4;4.3;;;;;;;-2.85;68.05566;943.2795;;;;
2022/03/02 04:09:52;;;;;;;9;4.1;;;;;;;-2.78;67.85742;943.2285;;;;
2022/03/02 04:12:17;;;;;;;6.3;3.4;;;;;;;-2.81;64.24414;943.2097;;;;
2022/03/02 04:14:42;;;;;;;6;3;;;;;;;-2.61;63.87793;943.1969;;;;
2022/03/02 04:17:07;;;;;;;7.4;3.1;;;;;;;-2.57;64.53613;943.2282;;;;
2022/03/02 04:19:35;;;;;;;6.4;3;;;;;;;-2.49;63.69629;943.184;;;;
2022/03/02 04:22:00;;;;;;;6.7;3.2;;;;;;;-2.38;61.44238;943.1685;;;;
2022/03/02 04:24:28;;;;;;;4.7;3;;;;;;;-2.24;60.12207;943.1178;;;;
2022/03/02 04:26:53;;;;;;;5.5;3.1;;;;;;;-2.05;59.87207;943.0546;;;;
2022/03/02 04:29:20;;;;;;;13.7;4.2;;;;;;;-2.07;59.45801;943.0234;;;;
2022/03/02 04:31:45;;;;;;;7.9;2.5;;;;;;;-1.94;58.11328;943.007;;;;
2022/03/02 04:34:13;;;;;;;4.2;2.5;;;;;;;-1.8;55.25977;943.0048;;;;
2022/03/02 04:36:38;;;;;;;6.3;3.1;;;;;;;-1.66;55.41211;942.9634;;;;
2022/03/02 04:39:05;;;;;;;13.2;4.9;;;;;;;-1.59;57.05176;942.9771;;;;
2022/03/02 04:41:30;;;;;;;11.1;4.8;;;;;;;-1.72;57.2002;942.8918;;;;
2022/03/02 04:43:56;;;;;;;13.1;5.9;;;;;;;-1.77;59.44531;942.9017;;;;
2022/03/02 04:46:21;;;;;;;13.1;6.3;;;;;;;-1.96;61.625;942.9041;;;;
2022/03/02 04:48:47;;;;;;;9.8;4.6;;;;;;;-2.27;63.56152;942.8681;;;;
2022/03/02 04:51:12;;;;;;;9;4.4;;;;;;;-2.51;64.79004;942.8506;;;;
2022/03/02 04:53:39;;;;;;;8.3;3.8;;;;;;;-2.58;65.02246;942.8709;;;;
2022/03/02 04:56:04;;;;;;;7.3;3.7;;;;;;;-2.6;65.01953;942.96;;;;
2022/03/02 04:59:16;;;;;;;7.7;4.7;;;;;;;-2.68;65.37207;942.9575;;;;
2022/03/02 05:01:46;;;;;;;8.2;3.8;;;;;;;-2.63;64.60547;942.8807;;;;
2022/03/02 05:04:13;;;;;;;7.7;4;;;;;;;-2.63;64.88086;942.8819;;;;
2022/03/02 05:06:39;;;;;;;8.2;4.3;;;;;;;-2.7;65.19238;942.8782;;;;
2022/03/02 05:09:07;;;;;;;7.4;4.2;;;;;;;-2.64;65.36621;942.8423;;;;
2022/03/02 05:11:32;;;;;;;9.1;4.5;;;;;;;-2.74;65.67188;942.7792;;;;
2022/03/02 05:14:02;;;;;;;6.4;3.7;;;;;;;-2.78;66.08691;942.7609;;;;
2022/03/02 05:16:29;;;;;;;7.4;4;;;;;;;-2.7;65.91016;942.8186;;;;
2022/03/02 05:18:59;;;;;;;8.8;4.5;;;;;;;-2.77;66.43164;942.8439;;;;
2022/03/02 05:21:29;;;;;;;14;5.9;;;;;;;-2.59;65.64063;942.8297;;;;
2022/03/02 05:23:54;;;;;;;14.3;6.5;;;;;;;-2.59;64.9541;942.7898;;;;
2022/03/02 05:26:19;;;;;;;13.6;6.2;;;;;;;-2.53;65.12891;942.8084;;;;
2022/03/02 05:28:49;;;;;;;15.8;5.9;;;;;;;-2.52;65.54004;942.7841;;;;
2022/03/02 05:31:14;;;;;;;6.4;3.5;;;;;;;-2.54;65.78223;942.8118;;;;
2022/03/02 05:33:40;;;;;;;8.2;4.1;;;;;;;-2.62;65.94531;942.8592;;;;
2022/03/02 05:36:11;;;;;;;7.9;3.6;;;;;;;-2.47;64.97363;942.8672;;;;
2022/03/02 05:38:36;;;;;;;7.6;2.8;;;;;;;-2.3;61.61914;942.8265;;;;
2022/03/02 05:41:03;;;;;;;5.3;2.7;;;;;;;-2.12;59.97168;942.7369;;;;
2022/03/02 05:43:28;;;;;;;4.7;2.6;;;;;;;-2;60.27832;942.7879;;;;
2022/03/02 05:45:55;;;;;;;4.6;2.7;;;;;;;-1.96;60.2832;942.7786;;;;
2022/03/02 05:48:20;;;;;;;4.7;2.6;;;;;;;-1.92;60.5;942.7584;;;;
2022/03/02 05:50:46;;;;;;;6.7;3.1;;;;;;;-2.05;61.05762;942.6799;;;;
2022/03/02 05:53:11;;;;;;;5.4;3;;;;;;;-2.08;61.98535;942.7819;;;;
2022/03/02 05:55:38;;;;;;;8.2;3.9;;;;;;;-2.1;62.48047;942.7241;;;;
2022/03/02 05:58:04;;;;;;;8.3;4;;;;;;;-2.07;62.81738;942.7276;;;;
2022/03/02 06:00:34;;;;;;;8.7;4.3;;;;;;;-1.97;62.82129;942.8005;;;;
2022/03/02 06:02:59;;;;;;;9.3;4.6;;;;;;;-1.94;62.8916;942.7595;;;;
2022/03/02 06:05:27;;;;;;;10.5;5.2;;;;;;;-1.93;62.99219;942.8077;;;;
2022/03/02 06:07:52;;;;;;;19;6.1;;;;;;;-2;63.14941;942.8054;;;;
2022/03/02 06:10:20;;;;;;;10.1;5;;;;;;;-2.12;63.38574;942.8142;;;;
2022/03/02 06:12:45;;;;;;;15.9;5.4;;;;;;;-2.03;63.67773;942.82;;;;
2022/03/02 06:19:08;;;;;;;19.8;5.5;;;;;;;-1.92;63.2832;942.7783;;;;
2022/03/02 06:21:40;;;;;;;12.8;5.1;;;;;;;-1.91;63.45117;942.8155;;;;
2022/03/02 06:24:02;;;;;;;11.9;4.9;;;;;;;-1.97;62.9209;942.7608;;;;
2022/03/02 06:26:31;;;;;;;7.8;4.1;;;;;;;-1.82;60.90234;942.7494;;;;
2022/03/02 06:28:57;;;;;;;15.6;4.5;;;;;;;-1.67;60.74707;942.7473;;;;
2022/03/02 06:31:25;;;;;;;12.2;4.4;;;;;;;-1.47;60.24316;942.7589;;;;
2022/03/02 06:33:50;;;;;;;7.4;3.5;;;;;;;-1.26;57.11914;942.6705;;;;
2022/03/02 06:36:18;;;;;;;5.4;3.1;;;;;;;-0.98;53.80078;942.6622;;;;
2022/03/02 06:38:42;;;;;;;7.5;3.2;;;;;;;-0.7;52.15723;942.5931;;;;
2022/03/02 06:41:11;;;;;;;7.1;3.7;;;;;;;-0.54;51.02051;942.6272;;;;
2022/03/02 06:43:35;;;;;;;5.8;2.8;;;;;;;-0.17;50.51953;942.6254;;;;
2022/03/02 06:46:00;;;;;;;8;3.5;;;;;;;0.14;52.42871;942.6516;;;;
2022/03/02 06:48:25;;;;;;;9.9;5.1;;;;;;;0.02;55.87695;942.6906;;;;
2022/03/02 06:50:50;;;;;;;11.6;5.6;;;;;;;-0.06;57.37012;942.6978;;;;
2022/03/02 06:53:15;;;;;;;10.1;5.2;;;;;;;-0.25;57.0332;942.7137;;;;
2022/03/02 06:55:45;;;;;;;14.3;7;;;;;;;-0.32;57.54688;942.6919;;;;
2022/03/02 06:58:15;;;;;;;17.3;7.3;;;;;;;-0.27;56.68652;942.7064;;;;
2022/03/02 07:00:41;;;;;;;11.4;5;;;;;;;-0.01;53.41211;942.5944;;;;
2022/03/02 07:03:09;;;;;;;12.5;5.2;;;;;;;0.68;52.62988;942.6221;;;;
2022/03/02 07:05:34;;;;;;;8.8;4.3;;;;;;;0.79;52.9668;942.6685;;;;
2022/03/02 07:07:59;;;;;;;9.2;4.6;;;;;;;0.85;52.90723;942.6234;;;;
2022/03/02 07:10:24;;;;;;;5.9;3.6;;;;;;;0.64;52.43457;942.639;;;;
2022/03/02 07:12:52;;;;;;;8.7;3.9;;;;;;;0.61;53.60254;942.6682;;;;
2022/03/02 07:15:22;;;;;;;10.8;4.7;;;;;;;0.71;52.95801;942.5798;;;;
2022/03/02 07:17:56;;;;;;;12.5;4.9;;;;;;;0.7;53.53516;942.606;;;;
2022/03/02 07:20:31;;;;;;;11.7;5.6;;;;;;;0.7;52.92188;942.6144;;;;
2022/03/02 07:22:58;;;;;;;14;6.7;;;;;;;1;51.6084;942.6082;;;;
2022/03/02 07:25:23;;;;;;;14.5;5.9;;;;;;;1.32;50.8418;942.4692;;;;
2022/03/02 07:27:49;;;;;;;10.5;6.1;;;;;;;1.73;51.11621;942.553;;;;
2022/03/02 07:30:22;;;;;;;12.7;5.3;;;;;;;1.91;50.65625;942.5457;;;;
2022/03/02 07:32:47;;;;;;;16.6;7.3;;;;;;;1.8;50.36328;942.4155;;;;
2022/03/02 07:35:12;;;;;;;16.6;7.1;;;;;;;1.46;50.54688;942.5737;;;;
2022/03/02 07:37:38;;;;;;;16.7;6.7;;;;;;;1.84;49.5752;942.5579;;;;
2022/03/02 07:40:03;;;;;;;8.7;4.1;;;;;;;2.14;46.07031;942.534;;;;
2022/03/02 07:42:30;;;;;;;9.6;4.4;;;;;;;2.39;46.70215;942.5114;;;;
2022/03/02 07:44:55;;;;;;;9.7;4.7;;;;;;;2.53;46.70801;942.4368;;;;
2022/03/02 07:47:21;;;;;;;9.6;4;;;;;;;3.95;42.37793;942.4458;;;;
2022/03/02 07:49:47;;;;;;;10.3;4.9;;;;;;;4.93;42.10254;942.3687;;;;
2022/03/02 07:52:13;;;;;;;11.5;4.6;;;;;;;5.14;41.75098;942.3647;;;;
2022/03/02 07:54:39;;;;;;;16.3;5.6;;;;;;;5.48;40.26172;942.3168;;;;
2022/03/02 07:57:07;;;;;;;12.5;5;;;;;;;6.12;39.49707;942.2201;;;;
2022/03/02 07:59:33;;;;;;;8.3;3.7;;;;;;;5.99;37.6543;942.1964;;;;
2022/03/02 08:01:58;;;;;;;1.9;1.4;;;;;;;5.62;34.34863;942.1853;;;;
2022/03/02 08:04:29;;;;;;;2.7;1.6;;;;;;;6.49;31.82813;942.1951;;;;
2022/03/02 08:06:54;;;;;;;3.6;1.6;;;;;;;7.73;31.99902;942.1838;;;;
2022/03/02 08:09:24;;;;;;;2.9;1.6;;;;;;;7.17;30.98438;942.2128;;;;
2022/03/02 08:11:53;;;;;;;2.3;1.5;;;;;;;7.28;30.25586;942.2068;;;;
2022/03/02 08:14:21;;;;;;;4.8;1.8;;;;;;;7.5;31.00781;942.1997;;;;
2022/03/02 08:16:49;;;;;;;6;2.1;;;;;;;7.93;28.98438;942.2307;;;;
2022/03/02 08:19:17;;;;;;;11.7;2.5;;;;;;;7.3;30.24512;942.1178;;;;
2022/03/02 08:21:43;;;;;;;4.7;1.9;;;;;;;8.02;30.5459;942.1611;;;;
2022/03/02 08:24:08;;;;;;;4;1.7;;;;;;;7.02;30.52051;942.1064;;;;
2022/03/02 08:26:34;;;;;;;7.2;2;;;;;;;7.64;31.0625;942.1339;;;;
2022/03/02 08:28:58;;;;;;;9.4;2.2;;;;;;;8.06;29.96973;942.1311;;;;
2022/03/02 08:31:30;;;;;;;3.9;1.4;;;;;;;7.02;29.51172;942.0652;;;;
2022/03/02 08:34:01;;;;;;;3.1;1.5;;;;;;;8.05;29.32227;942.0009;;;;
2022/03/02 08:38:53;;;;;;;4.7;2;;;;;;;6.98;29.31641;941.9824;;;;
2022/03/02 08:41:26;;;;;;;2.8;2;;;;;;;6.75;30.03613;941.9832;;;;
2022/03/02 08:43:53;;;;;;;8.4;5.1;;;;;;;7.23;29.4707;941.9077;;;;
2022/03/02 08:46:18;;;;;;;4;2.4;;;;;;;7.76;28.02051;941.8748;;;;
2022/03/02 08:48:45;;;;;;;9.6;4.7;;;;;;;8.47;27.70215;941.7966;;;;
2022/03/02 08:51:10;;;;;;;5.8;2.6;;;;;;;8.96;27.0625;941.7722;;;;
2022/03/02 08:53:41;;;;;;;13;6.4;;;;;;;10.36;25.99902;941.6793;;;;
2022/03/02 08:56:06;;;;;;;5.2;2.1;;;;;;;10.68;25.69824;941.6336;;;;
2022/03/02 08:58:33;;;;;;;4.3;1.6;;;;;;;10.04;25.48828;941.66;;;;
2022/03/02 09:00:58;;;;;;;4.1;2.3;;;;;;;9.57;26.32715;941.635;;;;
2022/03/02 09:03:27;;;;;;;5.3;2.3;;;;;;;9.26;25.23828;941.5326;;;;
2022/03/02 09:05:53;;;;;;;10.8;2.4;;;;;;;9.47;24.75977;941.5264;;;;
2022/03/02 09:08:22;;;;;;;6.3;3;;;;;;;10.2;25.08789;941.525;;;;
2022/03/02 09:10:47;;;;;;;7.3;2.7;;;;;;;10.16;26.08887;941.5274;;;;
2022/03/02 09:13:14;;;;;;;3.1;2.2;;;;;;;9.41;25.06445;941.4755;;;;
2022/03/02 09:15:50;;;;;;;3.4;1.7;;;;;;;9.51;24.41016;941.4478;;;;
2022/03/02 09:18:22;;;;;;;2.4;1.5;;;;;;;9.12;24.3418;941.408;;;;
2022/03/02 09:20:47;;;;;;;4;2.2;;;;;;;9.09;24.30566;941.347;;;;
2022/03/02 09:23:14;;;;;;;6.4;2.8;;;;;;;12.21;22.66016;941.2676;;;;
2022/03/02 09:25:40;;;;;;;12.2;3.6;;;;;;;12.44;21.12305;941.1663;;;;
2022/03/02 09:28:04;;;;;;;4.2;2.2;;;;;;;11.23;22.25391;941.1842;;;;
2022/03/02 09:30:36;;;;;;;3.4;1.8;;;;;;;12.06;21.49414;941.1708;;;;
2022/03/02 09:33:01;;;;;;;6.3;2;;;;;;;13.86;20.09961;941.0823;;;;
2022/03/02 09:35:26;;;;;;;7.2;1.9;;;;;;;15.83;19.74023;941.0971;;;;
2022/03/02 09:37:53;;;;;;;4.3;1.8;;;;;;;15.96;18.45117;941.0313;;;;
2022/03/02 09:40:17;;;;;;;3.3;1.6;;;;;;;12.74;22.8252;941.0086;;;;
2022/03/02 09:42:44;;;;;;;2.5;1.6;;;;;;;12.92;20.95117;941.0114;;;;
2022/03/02 09:45:13;;;;;;;5;1.6;;;;;;;13.89;20.71094;940.9895;;;;
2022/03/02 09:47:38;;;;;;;5.2;1.9;;;;;;;15.53;19.62207;940.9623;;;;
2022/03/02 09:50:06;;;;;;;3.1;1.5;;;;;;;16.36;20.07617;940.8809;;;;
2022/03/02 09:52:31;;;;;;;3.9;1.5;;;;;;;15.96;19.72266;940.8199;;;;
2022/03/02 09:54:58;;;;;;;3.2;1.6;;;;;;;15.27;18.58301;940.8766;;;;
2022/03/02 09:57:27;;;;;;;1.9;1.5;;;;;;;16.45;18.70313;940.8409;;;;
2022/03/02 09:59:51;;;;;;;7.4;2.3;;;;;;;17.23;18.79395;940.7755;;;;
2022/03/02 10:02:18;;;;;;;3.4;1.6;;;;;;;17.74;18.81543;940.6295;;;;
2022/03/02 10:04:44;;;;;;;1.8;1.2;;;;;;;17.88;17.61426;940.6392;;;;
2022/03/02 10:09:37;;;;;;;2.2;1.3;;;;;;;18.12;16.8457;940.5302;;;;
2022/03/02 10:12:03;;;;;;;4.8;1.4;;;;;;;18.53;16.98926;940.4665;;;;
2022/03/02 10:14:28;;;;;;;2.5;1.7;;;;;;;17.46;17.06348;940.4355;;;;
2022/03/02 10:17:00;;;;;;;4;1.5;;;;;;;18.55;17.47852;940.4308;;;;
2022/03/02 10:19:28;;;;;;;3.4;1.5;;;;;;;16.84;16.85449;940.4512;;;;
2022/03/02 10:21:55;;;;;;;2.2;1.4;;;;;;;17.63;18.20801;940.3867;;;;
2022/03/02 10:24:20;;;;;;;1.9;1.2;;;;;;;18.36;17.15723;940.3514;;;;
2022/03/02 10:26:45;;;;;;;3;1.4;;;;;;;18.44;16.73047;940.3036;;;;
2022/03/02 10:29:16;;;;;;;3.2;1.3;;;;;;;18.51;16.56934;940.2701;;;;
2022/03/02 10:31:40;;;;;;;2.6;1.2;;;;;;;18.39;16.25098;940.2453;;;;
2022/03/02 10:34:10;;;;;;;2.8;1.2;;;;;;;18.11;16.9375;940.2628;;;;
2022/03/02 10:36:35;;;;;;;2.6;1.4;;;;;;;18.3;17.07324;940.2559;;;;
2022/03/02 10:39:00;;;;;;;1.2;1.1;;;;;;;19.25;15.74707;940.2064;;;;
2022/03/02 10:41:25;;;;;;;2.4;1.1;;;;;;;19.59;15.50293;940.2006;;;;
2022/03/02 10:43:50;;;;;;;1.3;1.2;;;;;;;20.61;15.10645;940.1825;;;;
2022/03/02 10:46:15;;;;;;;2.1;1.2;;;;;;;20.16;14.13379;940.2173;;;;
2022/03/02 10:48:47;;;;;;;2.9;1.1;;;;;;;20.74;12.76172;940.1697;;;;
2022/03/02 10:51:13;;;;;;;2.5;0.9;;;;;;;20.41;13.54688;940.1445;;;;
2022/03/02 10:53:40;;;;;;;2.3;1.2;;;;;;;19.45;13.64551;940.1533;;;;
2022/03/02 10:56:04;;;;;;;2.2;1.3;;;;;;;17.97;16.47949;940.0631;;;;
2022/03/02 10:58:33;;;;;;;2.7;1.5;;;;;;;18.44;15.99707;940.0594;;;;
2022/03/02 11:00:58;;;;;;;4.5;1.7;;;;;;;19.07;15.16992;940.1373;;;;
2022/03/02 11:03:27;;;;;;;1.6;1.4;;;;;;;17.82;17.80957;940.0076;;;;
2022/03/02 11:05:53;;;;;;;6.3;4.9;;;;;;;17.47;16.86719;939.9925;;;;
2022/03/02 11:08:18;;;;;;;3.3;1.8;;;;;;;17.9;16.55859;939.8395;;;;
2022/03/02 11:10:43;;;;;;;1.9;1.5;;;;;;;18.12;18.1582;939.9016;;;;
2022/03/02 11:13:11;;;;;;;2.2;1.4;;;;;;;18.81;15.94043;939.8497;;;;
2022/03/02 11:15:34;;;;;;;2.9;1.3;;;;;;;19.39;14.77344;939.87;;;;
2022/03/02 11:17:59;;;;;;;5.8;1.3;;;;;;;19.32;13.74609;939.8561;;;;
2022/03/02 11:20:24;;;;;;;1.2;1.1;;;;;;;19.49;13.49512;939.7994;;;;
2022/03/02 11:22:55;;;;;;;2.5;1;;;;;;;20.59;13.56348;939.7;;;;
2022/03/02 11:25:19;;;;;;;1.2;1.1;;;;;;;21.72;13.36426;939.6976;;;;
2022/03/02 11:27:45;;;;;;;3;1.5;;;;;;;21.33;15.64648;939.6822;;;;
2022/03/02 11:30:10;;;;;;;2.2;1.4;;;;;;;22.17;14.74902;939.6654;;;;
2022/03/02 11:32:39;;;;;;;1.6;1.3;;;;;;;21.31;14.32324;939.6561;;;;
2022/03/02 11:35:04;;;;;;;2.5;1.4;;;;;;;21.17;14.97363;939.6214;;;;
2022/03/02 11:37:31;;;;;;;2.1;1.4;;;;;;;21.79;14.49121;939.5664;;;;
2022/03/02 11:39:57;;;;;;;1.4;1.3;;;;;;;22.63;13.13379;939.6026;;;;
2022/03/02 11:42:22;;;;;;;1.7;1.2;;;;;;;23.44;14.17969;939.5803;;;;
2022/03/02 11:44:47;;;;;;;2.6;1.3;;;;;;;23.04;14.32031;939.5411;;;;
2022/03/02 11:47:14;;;;;;;3.2;1.3;;;;;;;23.67;13.77539;939.5541;;;;
2022/03/02 11:49:39;;;;;;;2.1;1.4;;;;;;;23.83;14.02734;939.4967;;;;
2022/03/02 11:52:06;;;;;;;3.3;1.6;;;;;;;22.73;14.2168;939.5317;;;;
2022/03/02 11:54:30;;;;;;;2.3;1.7;;;;;;;23.65;13.0459;939.502;;;;
2022/03/02 11:56:58;;;;;;;2.3;1.7;;;;;;;22.94;13.55371;939.4146;;;;
2022/03/02 11:59:23;;;;;;;2.7;1.6;;;;;;;22.56;14.39844;939.3694;;;;
2022/03/02 12:01:53;;;;;;;4.7;1.9;;;;;;;21.06;15.96387;939.3508;;;;
2022/03/02 12:04:21;;;;;;;3.2;1.8;;;;;;;21.01;15.50586;939.3828;;;;
2022/03/02 12:06:47;;;;;;;2.6;1.6;;;;;;;19.99;16.30957;939.2794;;;;
2022/03/02 12:09:15;;;;;;;2.5;2;;;;;;;20.45;16.07031;939.343;;;;
2022/03/02 12:11:44;;;;;;;2.7;1.8;;;;;;;20.08;16.13867;939.3453;;;;
2022/03/02 12:14:09;;;;;;;3.3;1.9;;;;;;;19.44;16.46484;939.2584;;;;
2022/03/02 12:16:43;;;;;;;1.8;1.6;;;;;;;19.49;16.79297;939.2785;;;;
2022/03/02 12:19:08;;;;;;;2.9;2;;;;;;;17.93;17.14063;939.2324;;;;
2022/03/02 12:21:38;;;;;;;2.2;2;;;;;;;17.33;18.91406;939.1475;;;;
2022/03/02 12:24:03;;;;;;;2.6;1.9;;;;;;;17.76;17.92285;939.1221;;;;
2022/03/02 12:26:28;;;;;;;3.4;1.8;;;;;;;18.44;17.39258;939.1408;;;;
2022/03/02 12:28:57;;;;;;;2;1.7;;;;;;;18.7;17.86816;939.0693;;;;
2022/03/02 12:31:22;;;;;;;15;2.3;;;;;;;18.47;17.30078;939.0556;;;;
2022/03/02 12:33:54;;;;;;;4.3;1.8;;;;;;;20;16.53223;939.0722;;;;
2022/03/02 12:36:25;;;;;;;2.1;1.9;;;;;;;19.3;17.70605;939.0361;;;;
2022/03/02 12:38:54;;;;;;;1.9;1.7;;;;;;;19.35;15.69238;939.0061;;;;
2022/03/02 12:41:25;;;;;;;3;2;;;;;;;20.28;16.96289;938.9756;;;;
2022/03/02 12:43:50;;;;;;;2.3;1.7;;;;;;;21.16;15.72168;938.9244;;;;
2022/03/02 12:46:16;;;;;;;3.8;1.7;;;;;;;19.8;16.52539;938.9645;;;;
2022/03/02 12:48:41;;;;;;;2.9;1.9;;;;;;;18.67;17.78516;939.0804;;;;
2022/03/02 12:51:09;;;;;;;2.9;1.8;;;;;;;17.94;17.29102;939.0324;;;;
2022/03/02 12:53:34;;;;;;;2.5;2;;;;;;;17.74;18.90918;938.9381;;;;
2022/03/02 12:56:05;;;;;;;2;1.7;;;;;;;17.1;18.78906;938.9767;;;;
2022/03/02 12:58:28;;;;;;;3.1;1.8;;;;;;;16.91;18.52539;938.9905;;;;
2022/03/02 13:00:55;;;;;;;1.9;1.7;;;;;;;17.13;17.89746;938.9208;;;;
2022/03/02 13:03:20;;;;;;;2.4;2;;;;;;;16.23;19.48047;938.9125;;;;
2022/03/02 13:05:49;;;;;;;2.5;1.9;;;;;;;15.33;19.93652;938.9305;;;;
2022/03/02 13:08:14;;;;;;;3.3;2;;;;;;;15.11;19.68359;938.9816;;;;
2022/03/02 13:10:43;;;;;;;4.5;2.5;;;;;;;14.46;21.98242;939.0204;;;;
2022/03/02 13:13:09;;;;;;;3.7;2.5;;;;;;;13.81;21.99512;938.9825;;;;
2022/03/02 13:15:38;;;;;;;3.3;2.5;;;;;;;13.58;22.83496;938.8762;;;;
2022/03/02 13:18:04;;;;;;;4.3;2.2;;;;;;;13.72;21.78418;938.9667;;;;
2022/03/02 13:20:34;;;;;;;3;2.3;;;;;;;13.88;22.06738;938.8427;;;;
2022/03/02 13:55:31;;;;;;;4.3;2.8;;;;;;;11.74;24.4668;939.0442;;;;
2022/03/02 13:57:50;;;;;;;3.3;2.6;;;;;;;11.8;24.91699;939.0266;;;;
2022/03/02 14:00:18;;;;;;;2.7;2.5;;;;;;;11.56;23.83887;939.0476;;;;
2022/03/02 14:02:45;;;;;;;3.5;2.9;;;;;;;11.3;24.30469;938.9489;;;;
2022/03/02 14:05:10;;;;;;;4.9;2.7;;;;;;;11.45;24.2793;939.0284;;;;
2022/03/02 14:07:38;;;;;;;3.6;2.8;;;;;;;11.62;24.84961;939.0754;;;;
2022/03/02 14:10:03;;;;;;;5;2.9;;;;;;;11.93;23.93945;939.0331;;;;
2022/03/02 14:12:28;;;;;;;6.3;3;;;;;;;11.84;24.23242;939.0773;;;;
2022/03/02 14:14:56;;;;;;;3.4;2.8;;;;;;;11.68;24.47559;938.9609;;;;
2022/03/02 14:17:22;;;;;;;4.1;2.8;;;;;;;11.6;24.50488;939.0917;;;;
2022/03/02 14:19:49;;;;;;;3.5;2.8;;;;;;;11.54;24.27246;939.1232;;;;
2022/03/02 14:22:14;;;;;;;2.8;2.3;;;;;;;11.57;25.08691;939.0413;;;;
2022/03/02 14:24:42;;;;;;;7.2;3.1;;;;;;;11.36;25.47559;939.1041;;;;
2022/03/02 14:27:09;;;;;;;4.6;2.6;;;;;;;11.11;25.19727;939.081;;;;
2022/03/02 14:30:17;;;;;;;4;3;;;;;;;11.05;24.95313;939.0677;;;;
2022/03/02 14:32:48;;;;;;;6.3;3.5;;;;;;;11.03;25.9707;939.1146;;;;
2022/03/02 14:35:12;;;;;;;4.5;2.9;;;;;;;11.05;25.41211;939.1276;;;;
2022/03/02 14:37:41;;;;;;;4.6;3.4;;;;;;;10.95;27.72559;939.0992;;;;
2022/03/02 14:40:05;;;;;;;4.6;3.2;;;;;;;10.68;26.45117;939.1066;;;;
2022/03/02 14:42:30;;;;;;;3.7;3;;;;;;;10.69;27.11426;939.1252;;;;
2022/03/02 14:44:55;;;;;;;3.7;3;;;;;;;10.5;26.18945;939.1022;;;;
2022/03/02 14:47:20;;;;;;;3.7;3;;;;;;;10.49;26.56543;939.106;;;;
2022/03/02 14:49:48;;;;;;;5.7;3.2;;;;;;;10.48;28.51758;939.137;;;;
2022/03/02 14:52:13;;;;;;;5;3.3;;;;;;;10.57;27.32324;939.1458;;;;
2022/03/02 14:54:38;;;;;;;4.1;3.3;;;;;;;10.71;26.89941;939.0999;;;;
2022/03/02 14:57:08;;;;;;;5.8;3.4;;;;;;;10.66;27.69531;939.1296;;;;
2022/03/02 14:59:31;;;;;;;6.1;3.4;;;;;;;10.6;27.88574;939.1295;;;;
2022/03/02 15:01:58;;;;;;;5.5;3.3;;;;;;;10.54;27.87012;939.1225;;;;
2022/03/02 15:04:28;;;;;;;8.3;4.1;;;;;;;10.41;28.72949;939.1136;;;;
2022/03/02 15:06:52;;;;;;;5.3;3.5;;;;;;;10.45;28.02441;939.0625;;;;
2022/03/02 15:09:15;;;;;;;5.7;4.1;;;;;;;10.48;28.33496;939.1313;;;;
2022/03/02 15:11:45;;;;;;;5.4;3.7;;;;;;;10.52;27.68652;939.0928;;;;